createdAt,value
2018-09-25T00:01:39.020Z,532.10
2018-09-25T00:04:13.488Z,500.83
2018-09-25T00:06:47.961Z,578.97
2018-09-25T00:09:22.316Z,586.80
2018-09-25T00:11:56.460Z,602.70
2018-09-25T00:14:30.831Z,604.50
2018-09-25T00:17:05.064Z,579.10
2018-09-25T00:19:39.338Z,627.37
2018-09-25T00:22:13.724Z,574.77
2018-09-25T00:24:48.109Z,507.73
2018-09-25T00:27:22.404Z,376.93
2018-09-25T00:29:56.548Z,315.93
2018-09-25T00:32:30.990Z,280.40
2018-09-25T00:35:05.274Z,240.47
2018-09-25T00:37:39.484Z,256.07
2018-09-25T00:40:13.824Z,253.83
2018-09-25T00:42:47.965Z,278.73
2018-09-25T00:45:22.347Z,264.93
2018-09-25T00:47:56.772Z,284.67
2018-09-25T00:50:31.051Z,324.70
2018-09-25T00:53:05.410Z,279.20
2018-09-25T00:55:39.835Z,242.17
2018-09-25T00:58:14.199Z,231.83
2018-09-25T01:00:48.581Z,222.23
2018-09-25T01:03:23.056Z,208.60
2018-09-25T01:05:57.441Z,222.03
2018-09-25T01:08:31.715Z,246.27
2018-09-25T01:11:05.969Z,238.37
2018-09-25T01:13:40.400Z,283.23
2018-09-25T01:16:15.050Z,271.93
2018-09-25T01:18:49.403Z,286.90
2018-09-25T01:21:23.630Z,304.80
2018-09-25T01:23:58.497Z,338.87
2018-09-25T01:26:32.883Z,322.37
2018-09-25T01:29:07.340Z,304.57
2018-09-25T01:31:42.038Z,283.67
2018-09-25T01:34:16.953Z,277.50
2018-09-25T01:36:51.461Z,252.23
2018-09-25T01:39:25.780Z,226.03
2018-09-25T01:42:00.227Z,232.30
2018-09-25T01:44:34.682Z,192.70
2018-09-25T01:47:09.138Z,204.47
2018-09-25T01:49:43.418Z,227.80
2018-09-25T01:52:17.887Z,235.70
2018-09-25T01:54:52.158Z,243.00
2018-09-25T01:57:26.591Z,265.33
2018-09-25T02:00:01.043Z,267.83
2018-09-25T02:02:35.214Z,280.30
2018-09-25T02:05:09.632Z,293.77
2018-09-25T02:07:43.947Z,322.47
2018-09-25T02:10:18.298Z,391.27
2018-09-25T02:12:52.736Z,480.80
2018-09-25T02:15:27.136Z,512.60
2018-09-25T02:18:01.482Z,506.87
2018-09-25T02:20:35.735Z,500.47
2018-09-25T02:23:09.965Z,572.07
2018-09-25T02:25:44.264Z,527.60
2018-09-25T02:28:18.591Z,455.37
2018-09-25T02:30:53.078Z,442.40
2018-09-25T02:33:27.592Z,439.90
2018-09-25T02:36:01.827Z,412.57
2018-09-25T02:38:36.058Z,366.77
2018-09-25T02:41:10.553Z,300.67
2018-09-25T02:43:45.001Z,250.60
2018-09-25T02:46:19.439Z,228.17
2018-09-25T02:48:53.886Z,230.80
2018-09-25T02:51:28.163Z,253.53
2018-09-25T02:54:02.534Z,300.37
2018-09-25T02:56:36.787Z,330.00
2018-09-25T02:59:11.226Z,455.43
2018-09-25T03:01:45.475Z,564.20
2018-09-25T03:04:19.792Z,640.13
2018-09-25T03:06:54.164Z,642.77
2018-09-25T03:09:28.468Z,542.13
2018-09-25T03:12:09.384Z,420.80
2018-09-25T03:14:43.835Z,296.43
2018-09-25T03:17:18.263Z,207.97
2018-09-25T03:19:52.628Z,156.37
2018-09-25T03:22:27.047Z,140.67
2018-09-25T03:25:01.434Z,135.13
2018-09-25T03:27:35.919Z,149.77
2018-09-25T03:30:10.963Z,174.03
2018-09-25T03:32:45.223Z,188.97
2018-09-25T03:35:19.531Z,175.93
2018-09-25T03:37:53.754Z,200.97
2018-09-25T03:40:28.031Z,198.67
2018-09-25T03:43:02.368Z,236.57
2018-09-25T03:45:36.774Z,303.93
2018-09-25T03:48:11.277Z,349.00
2018-09-25T03:50:45.610Z,380.37
2018-09-25T03:53:20.109Z,411.83
2018-09-25T03:55:54.344Z,408.97
2018-09-25T03:58:28.807Z,481.20
2018-09-25T04:01:03.235Z,484.93
2018-09-25T04:03:37.499Z,424.57
2018-09-25T04:06:11.878Z,429.70
2018-09-25T04:08:46.280Z,399.33
2018-09-25T04:11:20.766Z,380.27
2018-09-25T04:13:55.087Z,339.63
2018-09-25T04:16:29.589Z,299.27
2018-09-25T04:19:04.027Z,249.50
2018-09-25T04:21:38.318Z,228.87
2018-09-25T04:24:12.689Z,219.17
2018-09-25T04:26:47.055Z,218.73
2018-09-25T04:29:28.243Z,207.70
2018-09-25T04:32:02.748Z,208.50
2018-09-25T04:34:37.203Z,209.33
2018-09-25T04:37:11.759Z,220.50
2018-09-25T04:39:46.199Z,222.67
2018-09-25T04:42:20.625Z,227.23
2018-09-25T04:44:54.986Z,231.37
2018-09-25T04:47:29.459Z,255.73
2018-09-25T04:50:03.878Z,246.33
2018-09-25T04:52:38.166Z,272.83
2018-09-25T04:55:12.414Z,288.80
2018-09-25T04:57:46.697Z,291.13
2018-09-25T05:00:21.091Z,295.73
2018-09-25T05:02:55.287Z,299.97
2018-09-25T05:05:29.611Z,294.33
2018-09-25T05:08:03.890Z,301.03
2018-09-25T05:10:38.180Z,303.30
2018-09-25T05:13:12.620Z,277.50
2018-09-25T05:15:46.823Z,279.47
2018-09-25T05:18:21.098Z,296.37
2018-09-25T05:20:55.309Z,295.67
2018-09-25T05:23:29.796Z,299.67
2018-09-25T05:26:04.185Z,283.43
2018-09-25T05:28:38.446Z,287.63
2018-09-25T05:31:12.838Z,282.87
2018-09-25T05:33:47.229Z,295.47
2018-09-25T05:36:21.431Z,315.07
2018-09-25T05:38:55.961Z,298.97
2018-09-25T05:41:30.338Z,320.70
2018-09-25T05:44:04.632Z,304.70
2018-09-25T05:46:38.990Z,334.73
2018-09-25T05:49:13.452Z,313.03
2018-09-25T05:51:47.712Z,291.03
2018-09-25T05:54:22.082Z,299.37
2018-09-25T05:56:56.504Z,288.60
2018-09-25T05:59:30.953Z,269.13
2018-09-25T06:02:05.319Z,270.57
2018-09-25T06:04:39.638Z,268.70
2018-09-25T06:07:13.793Z,257.07
2018-09-25T06:09:48.323Z,246.83
2018-09-25T06:12:22.608Z,229.60
2018-09-25T06:14:56.976Z,224.00
2018-09-25T06:17:31.349Z,253.57
2018-09-25T06:20:05.775Z,266.97
2018-09-25T06:22:40.288Z,275.30
2018-09-25T06:25:14.524Z,270.23
2018-09-25T06:27:48.944Z,281.00
2018-09-25T06:30:23.336Z,264.97
2018-09-25T06:32:57.782Z,261.93
2018-09-25T06:35:32.194Z,221.87
2018-09-25T06:38:06.445Z,195.47
2018-09-25T06:40:40.996Z,196.97
2018-09-25T06:43:15.204Z,252.00
2018-09-25T06:45:49.525Z,329.50
2018-09-25T06:48:23.756Z,348.40
2018-09-25T06:50:58.256Z,359.40
2018-09-25T06:53:32.621Z,397.93
2018-09-25T06:56:07.065Z,393.13
2018-09-25T06:58:41.382Z,436.97
2018-09-25T07:01:15.677Z,442.67
2018-09-25T07:03:50.115Z,431.07
2018-09-25T07:06:24.397Z,398.23
2018-09-25T07:08:58.714Z,345.13
2018-09-25T07:11:33.012Z,301.17
2018-09-25T07:14:07.460Z,328.40
2018-09-25T07:16:41.671Z,375.23
2018-09-25T07:19:17.918Z,356.03
2018-09-25T07:21:52.437Z,338.53
2018-09-25T07:24:26.920Z,300.00
2018-09-25T07:27:01.184Z,265.83
2018-09-25T07:29:35.417Z,311.20
2018-09-25T07:32:09.666Z,358.93
2018-09-25T07:34:43.956Z,420.90
2018-09-25T07:37:18.244Z,410.87
2018-09-25T07:39:52.515Z,409.60
2018-09-25T07:42:26.833Z,414.73
2018-09-25T07:45:01.309Z,432.30
2018-09-25T07:47:35.734Z,474.50
2018-09-25T07:50:10.079Z,529.50
2018-09-25T07:52:44.433Z,529.13
2018-09-25T07:55:18.706Z,553.70
2018-09-25T07:57:52.967Z,527.23
2018-09-25T08:00:27.174Z,507.47
2018-09-25T08:03:01.419Z,555.57
2018-09-25T08:05:35.680Z,526.67
2018-09-25T08:08:16.868Z,510.50
2018-09-25T08:10:51.340Z,465.07
2018-09-25T08:13:25.628Z,460.00
2018-09-25T08:16:00.121Z,434.87
2018-09-25T08:18:34.386Z,459.80
2018-09-25T08:21:08.900Z,463.30
2018-09-25T08:23:43.356Z,451.87
2018-09-25T08:26:17.831Z,434.30
2018-09-25T08:28:52.049Z,435.10
2018-09-25T08:31:26.529Z,420.57
2018-09-25T08:34:00.999Z,413.83
2018-09-25T08:36:35.463Z,439.27
2018-09-25T08:39:13.290Z,485.17
2018-09-25T08:41:48.177Z,540.50
2018-09-25T08:44:22.778Z,704.27
2018-09-25T08:46:57.165Z,593.93
2018-09-25T08:49:31.512Z,566.97
2018-09-25T08:52:05.975Z,462.43
2018-09-25T08:54:40.161Z,596.63
2018-09-25T08:57:14.617Z,616.13
2018-09-25T08:59:48.786Z,660.00
2018-09-25T09:02:23.088Z,727.57
2018-09-25T09:04:57.541Z,724.00
2018-09-25T09:07:31.961Z,724.23
2018-09-25T09:10:07.304Z,759.93
2018-09-25T09:12:41.777Z,741.87
2018-09-25T09:15:16.014Z,664.83
2018-09-25T09:17:50.472Z,615.30
2018-09-25T09:20:24.968Z,693.87
2018-09-25T09:22:59.326Z,693.17
2018-09-25T09:25:33.472Z,556.33
2018-09-25T09:28:07.939Z,533.47
2018-09-25T09:30:42.402Z,565.60
2018-09-25T09:33:16.690Z,546.93
2018-09-25T09:35:51.102Z,585.63
2018-09-25T09:38:25.384Z,593.70
2018-09-25T09:41:00.163Z,558.67
2018-09-25T09:43:34.388Z,518.37
2018-09-25T09:46:08.786Z,576.97
2018-09-25T09:48:43.350Z,573.40
2018-09-25T09:51:17.721Z,545.70
2018-09-25T09:53:52.120Z,515.63
2018-09-25T09:56:26.458Z,537.77
2018-09-25T09:59:01.030Z,579.53
2018-09-25T10:01:35.429Z,564.60
2018-09-25T10:04:09.700Z,574.17
2018-09-25T10:06:44.178Z,605.90
2018-09-25T10:09:18.448Z,647.60
2018-09-25T10:11:53.380Z,621.80
2018-09-25T10:14:27.817Z,674.07
2018-09-25T10:17:02.103Z,667.47
2018-09-25T10:19:36.599Z,654.90
2018-09-25T10:22:11.001Z,701.10
2018-09-25T10:24:45.467Z,756.93
2018-09-25T10:27:20.111Z,735.80
2018-09-25T10:29:54.667Z,724.13
2018-09-25T10:32:29.180Z,734.27
2018-09-25T10:35:03.452Z,726.97
2018-09-25T10:37:37.760Z,692.00
2018-09-25T10:40:12.190Z,652.23
2018-09-25T10:42:46.665Z,667.73
2018-09-25T10:45:20.977Z,644.70
2018-09-25T10:47:55.372Z,604.53
2018-09-25T10:50:29.789Z,606.47
2018-09-25T10:53:04.090Z,619.00
2018-09-25T10:55:38.449Z,571.00
2018-09-25T10:58:12.851Z,608.20
2018-09-25T11:07:56.100Z,495.57
2018-09-25T11:10:30.293Z,464.57
2018-09-25T11:13:04.779Z,422.83
2018-09-25T11:15:39.194Z,462.07
2018-09-25T11:18:13.635Z,457.10
2018-09-25T11:20:48.018Z,441.07
2018-09-25T11:23:22.373Z,502.07
2018-09-25T11:25:56.812Z,499.90
2018-09-25T11:28:31.224Z,547.30
2018-09-25T11:31:05.760Z,550.33
2018-09-25T11:33:40.169Z,519.20
2018-09-25T11:36:14.628Z,477.50
2018-09-25T11:38:49.158Z,441.43
2018-09-25T11:41:23.751Z,425.27
2018-09-25T11:43:57.838Z,424.47
2018-09-25T11:46:32.281Z,357.67
2018-09-25T11:49:06.752Z,344.53
2018-09-25T11:51:41.232Z,469.60
2018-09-25T11:54:15.561Z,490.77
2018-09-25T11:56:49.865Z,557.57
2018-09-25T11:59:24.245Z,640.37
2018-09-25T12:01:58.612Z,668.53
2018-09-25T12:04:33.079Z,703.37
2018-09-25T12:07:07.433Z,693.53
2018-09-25T12:09:41.759Z,674.77
2018-09-25T12:12:16.058Z,723.63
2018-09-25T12:14:50.475Z,749.17
2018-09-25T12:17:24.735Z,732.43
2018-09-25T12:19:59.276Z,711.57
2018-09-25T12:22:33.619Z,739.83
2018-09-25T12:25:08.052Z,715.03
2018-09-25T12:27:42.403Z,708.33
2018-09-25T12:30:16.808Z,684.40
2018-09-25T12:32:51.360Z,647.83
2018-09-25T12:35:25.683Z,690.97
2018-09-25T12:37:59.993Z,718.17
2018-09-25T12:40:34.290Z,709.57
2018-09-25T12:48:28.189Z,737.43
2018-09-25T12:51:03.015Z,810.10
2018-09-25T12:53:37.487Z,753.33
2018-09-25T12:56:11.891Z,802.33
2018-09-25T12:58:46.366Z,757.70
2018-09-25T13:01:20.775Z,781.70
2018-09-25T13:03:55.418Z,761.23
2018-09-25T13:06:29.840Z,789.10
2018-09-25T13:09:04.252Z,794.20
2018-09-25T13:11:38.741Z,834.23
2018-09-25T13:14:13.223Z,828.37
2018-09-25T13:16:47.646Z,828.97
2018-09-25T13:19:22.066Z,838.33
2018-09-25T13:21:56.477Z,811.53
2018-09-25T13:24:30.813Z,830.93
2018-09-25T13:27:05.232Z,832.03
2018-09-25T13:29:39.557Z,812.40
2018-09-25T13:32:14.099Z,847.43
2018-09-25T13:34:48.455Z,854.13
2018-09-25T13:37:22.841Z,839.63
2018-09-25T13:39:57.191Z,863.50
2018-09-25T13:42:31.581Z,831.57
2018-09-25T13:45:06.027Z,854.47
2018-09-25T13:47:40.399Z,869.50
2018-09-25T13:50:14.948Z,837.90
2018-09-25T13:52:49.319Z,839.90
2018-09-25T13:55:23.694Z,851.17
2018-09-25T13:57:58.112Z,832.83
2018-09-25T14:00:32.310Z,848.63
2018-09-25T14:03:06.777Z,809.87
2018-09-25T14:05:41.220Z,839.37
2018-09-25T14:08:15.552Z,809.67
2018-09-25T14:10:49.803Z,847.30
2018-09-25T14:13:24.170Z,826.40
2018-09-25T14:15:58.429Z,827.47
2018-09-25T14:18:33.019Z,839.63
2018-09-25T14:21:07.432Z,868.80
2018-09-25T14:23:41.763Z,838.40
2018-09-25T14:26:16.065Z,832.93
2018-09-25T14:28:50.403Z,848.40
2018-09-25T14:31:24.884Z,833.47
2018-09-25T14:33:59.419Z,824.73
2018-09-25T14:36:33.864Z,816.13
2018-09-25T14:39:08.208Z,791.87
2018-09-25T14:41:42.523Z,810.57
2018-09-25T14:44:16.786Z,823.97
2018-09-25T14:46:51.272Z,715.87
2018-09-25T14:49:25.715Z,774.17
2018-09-25T14:51:59.995Z,741.90
2018-09-25T14:54:34.325Z,706.33
2018-09-25T14:57:08.829Z,771.03
2018-09-25T14:59:43.285Z,767.97
2018-09-25T15:02:24.184Z,710.97
2018-09-25T15:04:58.435Z,751.73
2018-09-25T15:07:32.800Z,774.23
2018-09-25T15:10:07.192Z,796.20
2018-09-25T15:12:41.501Z,787.17
2018-09-25T15:15:15.830Z,798.57
2018-09-25T15:17:50.122Z,746.00
2018-09-25T15:20:24.389Z,775.53
2018-09-25T15:22:58.951Z,681.47
2018-09-25T15:25:33.317Z,652.10
2018-09-25T15:28:07.640Z,662.13
2018-09-25T15:30:42.005Z,631.90
2018-09-25T15:33:16.331Z,664.23
2018-09-25T15:35:50.867Z,690.77
2018-09-25T15:38:25.127Z,722.13
2018-09-25T15:40:59.484Z,795.63
2018-09-25T15:43:34.187Z,771.83
2018-09-25T15:53:17.293Z,631.47
2018-09-25T15:55:52.183Z,690.00
2018-09-25T15:58:26.663Z,711.43
2018-09-25T16:01:00.914Z,710.50
2018-09-25T16:03:35.400Z,746.93
2018-09-25T16:06:09.715Z,762.13
2018-09-25T16:08:44.183Z,791.70
2018-09-25T16:11:19.027Z,788.83
2018-09-25T16:13:53.365Z,811.03
2018-09-25T16:16:27.896Z,742.73
2018-09-25T16:19:02.279Z,742.80
2018-09-25T16:21:36.548Z,756.37
2018-09-25T16:24:10.917Z,790.83
2018-09-25T16:26:45.438Z,753.87
2018-09-25T16:29:19.793Z,735.67
2018-09-25T16:31:54.552Z,735.10
2018-09-25T16:34:33.873Z,764.97
2018-09-25T16:37:08.583Z,773.17
2018-09-25T16:39:43.193Z,786.90
2018-09-25T16:42:17.723Z,774.33
2018-09-25T16:44:52.373Z,760.87
2018-09-25T16:47:26.997Z,789.77
2018-09-25T16:50:02.043Z,792.40
2018-09-25T16:52:36.742Z,794.30
2018-09-25T16:55:12.385Z,803.63
2018-09-25T16:57:47.208Z,796.13
2018-09-25T17:00:21.890Z,816.80
2018-09-25T17:02:56.541Z,814.07
2018-09-25T17:05:30.909Z,812.80
2018-09-25T17:08:05.810Z,786.47
2018-09-25T17:10:40.139Z,751.40
2018-09-25T17:13:14.727Z,743.97
2018-09-25T17:15:48.987Z,698.90
2018-09-25T17:18:23.457Z,607.30
2018-09-25T17:20:57.736Z,514.63
2018-09-25T17:23:32.188Z,481.30
2018-09-25T17:26:06.387Z,469.43
2018-09-25T17:28:40.887Z,438.57
2018-09-25T17:31:15.348Z,365.67
2018-09-25T17:33:49.827Z,327.77
2018-09-25T17:36:24.255Z,286.33
2018-09-25T17:38:58.666Z,254.07
2018-09-25T17:41:32.976Z,189.83
2018-09-25T17:44:07.706Z,189.20
2018-09-25T17:46:42.159Z,162.67
2018-09-25T17:49:16.579Z,173.00
2018-09-25T17:51:51.415Z,185.60
2018-09-25T17:54:25.720Z,204.67
2018-09-25T17:57:00.270Z,237.50
2018-09-25T17:59:35.329Z,266.60
2018-09-25T18:02:11.581Z,306.37
2018-09-25T18:04:46.582Z,339.30
2018-09-25T18:07:21.326Z,330.27
2018-09-25T18:09:56.266Z,375.07
2018-09-25T18:12:31.186Z,363.80
2018-09-25T18:15:06.059Z,372.33
2018-09-25T18:17:41.026Z,388.63
2018-09-25T18:20:15.593Z,439.90
2018-09-25T18:22:50.386Z,418.00
2018-09-25T18:25:25.053Z,424.30
2018-09-25T18:27:59.899Z,436.33
2018-09-25T18:30:37.331Z,413.63
2018-09-25T18:33:12.477Z,400.03
2018-09-25T18:35:48.918Z,376.87
2018-09-25T18:38:25.166Z,344.60
2018-09-25T18:41:00.226Z,332.13
2018-09-25T18:43:36.268Z,308.43
2018-09-25T18:46:13.611Z,283.90
2018-09-25T18:48:50.684Z,266.10
2018-09-25T18:51:26.992Z,276.17
2018-09-25T18:54:04.812Z,236.10
2018-09-25T18:56:43.216Z,235.63
2018-09-25T18:59:19.210Z,235.17
2018-09-25T19:01:56.129Z,248.27
2018-09-25T19:04:33.236Z,247.97
2018-09-25T19:07:12.305Z,222.90
2018-09-25T19:09:49.228Z,220.37
2018-09-25T19:12:26.348Z,229.63
2018-09-25T19:15:03.937Z,220.63
2018-09-25T19:17:42.060Z,221.53
2018-09-25T19:20:20.052Z,242.83
2018-09-25T19:22:57.089Z,238.50
2018-09-25T19:25:33.400Z,245.90
2018-09-25T19:28:10.484Z,245.07
2018-09-25T19:30:47.480Z,261.67
2018-09-25T19:33:24.767Z,280.17
2018-09-25T19:36:01.950Z,326.70
2018-09-25T19:38:39.380Z,322.23
2018-09-25T19:41:17.651Z,371.57
2018-09-25T19:43:55.634Z,369.33
2018-09-25T19:46:33.907Z,362.13
2018-09-25T19:49:12.804Z,385.17
2018-09-25T19:51:49.603Z,444.93
2018-09-25T19:54:25.978Z,407.43
2018-09-25T19:57:02.890Z,428.40
2018-09-25T19:59:42.948Z,423.37
2018-09-25T20:02:21.485Z,428.93
2018-09-25T20:04:59.478Z,437.10
2018-09-25T20:07:34.512Z,423.17
2018-09-25T20:10:09.643Z,465.80
2018-09-25T20:12:44.025Z,468.30
2018-09-25T20:15:18.463Z,500.90
2018-09-25T20:17:52.798Z,484.60
2018-09-25T20:20:27.252Z,472.60
2018-09-25T20:23:01.561Z,526.63
2018-09-25T20:25:35.799Z,492.13
2018-09-25T20:28:10.138Z,511.10
2018-09-25T20:30:44.517Z,477.57
2018-09-25T20:33:18.857Z,510.90
2018-09-25T20:35:53.237Z,496.57
2018-09-25T20:38:27.570Z,537.30
2018-09-25T20:41:02.099Z,521.50
2018-09-25T20:43:36.525Z,530.67
2018-09-25T20:46:10.808Z,545.93
2018-09-25T20:48:45.174Z,544.47
2018-09-25T20:51:19.496Z,537.53
2018-09-25T20:53:53.655Z,573.07
2018-09-25T20:56:28.134Z,532.43
2018-09-25T20:59:02.788Z,583.87
2018-09-25T21:01:38.328Z,517.10
2018-09-25T21:04:12.783Z,560.23
2018-09-25T21:06:47.459Z,557.70
2018-09-25T21:09:21.999Z,548.37
2018-09-25T21:11:56.868Z,579.23
2018-09-25T21:14:31.634Z,552.70
2018-09-25T21:17:06.576Z,586.00
2018-09-25T21:19:41.221Z,579.37
2018-09-25T21:22:16.177Z,589.37
2018-09-25T21:24:50.473Z,637.77
2018-09-25T21:27:25.977Z,614.37
2018-09-25T21:30:00.664Z,617.93
2018-09-25T21:32:34.938Z,657.57
2018-09-25T21:35:09.436Z,646.87
2018-09-25T21:37:43.884Z,663.90
2018-09-25T21:40:18.329Z,655.47
2018-09-25T21:42:52.874Z,660.73
2018-09-25T21:45:27.566Z,643.53
2018-09-25T21:48:02.261Z,660.40
2018-09-25T21:50:36.615Z,676.13
2018-09-25T21:53:11.814Z,663.10
2018-09-25T21:55:46.281Z,638.70
2018-09-25T21:58:20.700Z,665.90
2018-09-25T22:00:55.025Z,683.87
2018-09-25T22:03:29.460Z,675.90
2018-09-25T22:06:03.732Z,672.47
2018-09-25T22:08:39.361Z,674.00
2018-09-25T22:11:13.897Z,690.17
2018-09-25T22:13:49.296Z,686.00
2018-09-25T22:16:23.723Z,667.97
2018-09-25T22:18:58.154Z,684.13
2018-09-25T22:21:32.556Z,655.10
2018-09-25T22:24:06.961Z,694.13
2018-09-25T22:26:41.492Z,686.90
2018-09-25T22:29:15.826Z,680.93
2018-09-25T22:31:50.258Z,714.00
2018-09-25T22:34:24.523Z,705.40
2018-09-25T22:36:58.816Z,710.53
2018-09-25T22:39:32.993Z,703.23
2018-09-25T22:42:07.303Z,734.23
2018-09-25T22:44:41.546Z,752.10
2018-09-25T22:47:15.809Z,715.90
2018-09-25T22:49:50.209Z,686.80
2018-09-25T22:52:24.656Z,718.17
2018-09-25T22:54:58.813Z,734.73
2018-09-25T22:57:33.623Z,733.23
2018-09-25T23:00:08.036Z,722.10
2018-09-25T23:02:42.479Z,708.17
2018-09-25T23:05:16.832Z,691.27
2018-09-25T23:07:51.274Z,717.73
2018-09-25T23:10:25.723Z,720.43
2018-09-25T23:13:00.007Z,717.67
2018-09-25T23:15:34.438Z,722.73
2018-09-25T23:18:08.855Z,720.53
2018-09-25T23:20:43.411Z,732.80
2018-09-25T23:23:17.809Z,710.93
2018-09-25T23:25:52.194Z,721.33
2018-09-25T23:28:26.455Z,743.63
2018-09-25T23:31:00.777Z,716.90
2018-09-25T23:33:35.067Z,743.30
2018-09-25T23:36:09.502Z,703.77
2018-09-25T23:38:43.743Z,699.57
2018-09-25T23:41:17.841Z,729.33
2018-09-25T23:43:52.585Z,724.20
2018-09-25T23:48:28.255Z,726.63
2018-09-25T23:51:00.802Z,663.80
2018-09-25T23:53:36.067Z,716.27
2018-09-25T23:56:10.695Z,722.30
2018-09-25T23:58:42.578Z,743.60
